Hanover County Municipal Airport


Codes: KOFP/
Name: Hanover County Municipal Airport
City: Richmond/Ashland
Country: United States
Elevation: 207 ft.

Photos at Hanover County Municipal Airport


   Photos courtesy of SpottingLog. You can add your own sightings and photos by signing up for a free trial today.



No photos found.

Weather at Hanover County Municipal Airport


Time (UTC)DescriptionTempratureWindCloud coverageVisibilityPressureHumidity
18-Apr-2024 00:00Scattered Clouds23°C9 mph, S33%10000m1013hPa66%
18-Apr-2024 03:00Light Rain20°C9 mph, SW67%10000m1014hPa79%
18-Apr-2024 06:00Light Rain18°C9 mph, SW81%10000m1013hPa91%
18-Apr-2024 09:00Few Clouds16°C7 mph, SW11%10000m1014hPa90%
18-Apr-2024 12:00Clear Sky17°C4 mph, W6%10000m1016hPa85%
18-Apr-2024 15:00Clear Sky23°C7 mph, NW10%10000m1016hPa48%
18-Apr-2024 18:00Clear Sky26°C9 mph, NW5%10000m1015hPa37%
18-Apr-2024 21:00Clear Sky26°C7 mph, N0%10000m1014hPa32%
19-Apr-2024 00:00Clear Sky19°C4 mph, NE1%10000m1016hPa62%
19-Apr-2024 03:00Clear Sky15°C7 mph, E1%10000m1018hPa88%
19-Apr-2024 06:00Scattered Clouds12°C7 mph, E34%9430m1018hPa96%
19-Apr-2024 09:00Overcast Clouds11°C4 mph, E86%10000m1018hPa90%
19-Apr-2024 12:00Broken Clouds11°C4 mph, SE67%10000m1019hPa84%
19-Apr-2024 15:00Overcast Clouds17°C4 mph, SE98%10000m1018hPa65%
19-Apr-2024 18:00Overcast Clouds22°C7 mph, S99%10000m1016hPa53%
19-Apr-2024 21:00Overcast Clouds23°C4 mph, S90%10000m1014hPa52%
20-Apr-2024 00:00Overcast Clouds19°C7 mph, SE92%10000m1014hPa71%
20-Apr-2024 03:00Broken Clouds14°C7 mph, SE82%10000m1016hPa86%
20-Apr-2024 06:00Light Rain14°C4 mph, N78%10000m1016hPa91%
20-Apr-2024 09:00Light Rain13°C9 mph, NE100%10000m1016hPa84%
20-Apr-2024 12:00Overcast Clouds13°C7 mph, NE100%10000m1018hPa74%
20-Apr-2024 15:00Overcast Clouds13°C4 mph, NE100%10000m1018hPa66%
20-Apr-2024 18:00Overcast Clouds13°C4 mph, NE100%10000m1017hPa55%
20-Apr-2024 21:00Scattered Clouds18°C2 mph, SW50%10000m1015hPa42%
21-Apr-2024 00:00Broken Clouds14°C9 mph, SW61%10000m1017hPa66%
21-Apr-2024 03:00Broken Clouds11°C2 mph, NW82%10000m1019hPa76%
21-Apr-2024 06:00Overcast Clouds9°C7 mph, N91%10000m1019hPa79%
21-Apr-2024 09:00Overcast Clouds7°C4 mph, N100%10000m1020hPa80%
21-Apr-2024 12:00Overcast Clouds8°C2 mph, NE100%10000m1022hPa68%
21-Apr-2024 15:00Overcast Clouds14°C2 mph, NE100%10000m1021hPa45%
21-Apr-2024 18:00Overcast Clouds16°C4 mph, W100%10000m1019hPa36%
21-Apr-2024 21:00Overcast Clouds16°C4 mph, SW100%10000m1017hPa41%
22-Apr-2024 00:00Overcast Clouds13°C4 mph, SE100%10000m1016hPa55%
22-Apr-2024 03:00Overcast Clouds12°C2 mph, E100%10000m1017hPa63%
22-Apr-2024 06:00Overcast Clouds11°C4 mph, NE100%10000m1017hPa73%
22-Apr-2024 09:00Overcast Clouds10°C7 mph, NE100%10000m1017hPa63%
22-Apr-2024 12:00Overcast Clouds10°C7 mph, N99%10000m1019hPa58%
22-Apr-2024 15:00Broken Clouds15°C7 mph, NE55%10000m1019hPa40%
22-Apr-2024 18:00Broken Clouds18°C4 mph, NE55%10000m1017hPa33%
22-Apr-2024 21:00Overcast Clouds18°C4 mph, NE86%10000m1015hPa32%